sensor_id;sensor_type;location;lat;lon;timestamp;temperature;humidity
2391;DHT22;22957;50.824;4.360;2023-04-19T00:00:16;10.30;99.90
2391;DHT22;22957;50.824;4.360;2023-04-19T00:02:42;10.20;99.90
2391;DHT22;22957;50.824;4.360;2023-04-19T00:05:07;10.30;99.90
2391;DHT22;22957;50.824;4.360;2023-04-19T00:07:33;10.20;99.90
2391;DHT22;22957;50.824;4.360;2023-04-19T00:09:59;10.40;99.90
2391;DHT22;22957;50.824;4.360;2023-04-19T00:12:24;10.30;99.90
2391;DHT22;22957;50.824;4.360;2023-04-19T00:14:50;9.80;99.90
2391;DHT22;22957;50.824;4.360;2023-04-19T00:17:15;10.30;99.90
2391;DHT22;22957;50.824;4.360;2023-04-19T00:19:41;10.00;99.90
2391;DHT22;22957;50.824;4.360;2023-04-19T00:22:07;10.30;99.90
2391;DHT22;22957;50.824;4.360;2023-04-19T00:24:33;9.90;99.90
2391;DHT22;22957;50.824;4.360;2023-04-19T00:26:58;10.00;99.90
2391;DHT22;22957;50.824;4.360;2023-04-19T00:29:24;10.10;99.90
2391;DHT22;22957;50.824;4.360;2023-04-19T00:31:49;10.00;99.90
2391;DHT22;22957;50.824;4.360;2023-04-19T00:34:15;9.90;99.90
2391;DHT22;22957;50.824;4.360;2023-04-19T00:36:40;10.10;99.90
2391;DHT22;22957;50.824;4.360;2023-04-19T00:39:06;10.20;99.90
2391;DHT22;22957;50.824;4.360;2023-04-19T00:41:32;9.90;99.90
2391;DHT22;22957;50.824;4.360;2023-04-19T00:43:57;9.70;99.90
2391;DHT22;22957;50.824;4.360;2023-04-19T00:46:23;9.70;99.90
2391;DHT22;22957;50.824;4.360;2023-04-19T00:48:49;9.70;99.90
2391;DHT22;22957;50.824;4.360;2023-04-19T00:51:15;9.80;99.90
2391;DHT22;22957;50.824;4.360;2023-04-19T00:53:42;9.70;99.90
2391;DHT22;22957;50.824;4.360;2023-04-19T00:56:08;9.80;99.90
2391;DHT22;22957;50.824;4.360;2023-04-19T00:58:37;9.80;99.90
2391;DHT22;22957;50.824;4.360;2023-04-19T01:01:03;10.20;99.90
2391;DHT22;22957;50.824;4.360;2023-04-19T01:03:29;9.90;99.90
2391;DHT22;22957;50.824;4.360;2023-04-19T01:05:55;10.20;99.90
2391;DHT22;22957;50.824;4.360;2023-04-19T01:08:21;9.90;99.90
2391;DHT22;22957;50.824;4.360;2023-04-19T01:10:47;10.00;99.90
2391;DHT22;22957;50.824;4.360;2023-04-19T01:13:12;9.80;99.90
2391;DHT22;22957;50.824;4.360;2023-04-19T01:15:38;10.40;99.90
2391;DHT22;22957;50.824;4.360;2023-04-19T01:18:04;10.40;99.90
2391;DHT22;22957;50.824;4.360;2023-04-19T01:20:29;10.00;99.90
2391;DHT22;22957;50.824;4.360;2023-04-19T01:22:55;9.40;99.90
2391;DHT22;22957;50.824;4.360;2023-04-19T01:25:20;9.10;99.90
2391;DHT22;22957;50.824;4.360;2023-04-19T01:27:46;9.30;99.90
2391;DHT22;22957;50.824;4.360;2023-04-19T01:30:11;9.80;99.90
2391;DHT22;22957;50.824;4.360;2023-04-19T01:32:37;9.70;99.90
2391;DHT22;22957;50.824;4.360;2023-04-19T01:35:03;9.70;99.90
2391;DHT22;22957;50.824;4.360;2023-04-19T01:37:28;9.60;99.90
2391;DHT22;22957;50.824;4.360;2023-04-19T01:39:54;9.40;99.90
2391;DHT22;22957;50.824;4.360;2023-04-19T01:42:20;9.20;99.90
2391;DHT22;22957;50.824;4.360;2023-04-19T01:44:45;9.30;99.90
2391;DHT22;22957;50.824;4.360;2023-04-19T01:47:11;9.20;99.90
2391;DHT22;22957;50.824;4.360;2023-04-19T01:49:36;9.40;99.90
2391;DHT22;22957;50.824;4.360;2023-04-19T01:52:02;9.30;99.90
2391;DHT22;22957;50.824;4.360;2023-04-19T01:54:27;9.20;99.90
2391;DHT22;22957;50.824;4.360;2023-04-19T01:56:53;9.20;99.90
2391;DHT22;22957;50.824;4.360;2023-04-19T01:59:18;9.10;99.90
2391;DHT22;22957;50.824;4.360;2023-04-19T02:01:44;9.50;99.90
2391;DHT22;22957;50.824;4.360;2023-04-19T02:04:09;9.20;99.90
2391;DHT22;22957;50.824;4.360;2023-04-19T02:06:35;9.40;99.90
2391;DHT22;22957;50.824;4.360;2023-04-19T02:09:01;9.60;99.90
2391;DHT22;22957;50.824;4.360;2023-04-19T02:11:26;9.40;99.90
2391;DHT22;22957;50.824;4.360;2023-04-19T02:13:52;9.70;99.90
2391;DHT22;22957;50.824;4.360;2023-04-19T02:16:17;9.50;99.90
2391;DHT22;22957;50.824;4.360;2023-04-19T02:18:43;9.80;99.90
2391;DHT22;22957;50.824;4.360;2023-04-19T02:21:09;9.70;99.90
2391;DHT22;22957;50.824;4.360;2023-04-19T02:23:35;9.60;99.90
2391;DHT22;22957;50.824;4.360;2023-04-19T02:26:01;9.70;99.90
2391;DHT22;22957;50.824;4.360;2023-04-19T02:28:30;9.80;99.90
2391;DHT22;22957;50.824;4.360;2023-04-19T02:30:56;9.60;99.90
2391;DHT22;22957;50.824;4.360;2023-04-19T02:33:22;9.70;99.90
2391;DHT22;22957;50.824;4.360;2023-04-19T02:35:48;10.10;99.90
2391;DHT22;22957;50.824;4.360;2023-04-19T02:38:14;9.80;99.90
2391;DHT22;22957;50.824;4.360;2023-04-19T02:40:39;10.40;99.90
2391;DHT22;22957;50.824;4.360;2023-04-19T02:43:05;10.80;99.90
2391;DHT22;22957;50.824;4.360;2023-04-19T02:45:30;10.40;99.90
2391;DHT22;22957;50.824;4.360;2023-04-19T02:47:56;10.50;99.90
2391;DHT22;22957;50.824;4.360;2023-04-19T02:50:23;10.30;99.90
2391;DHT22;22957;50.824;4.360;2023-04-19T02:52:48;10.30;99.90
2391;DHT22;22957;50.824;4.360;2023-04-19T02:55:14;10.10;99.90
2391;DHT22;22957;50.824;4.360;2023-04-19T02:57:39;10.30;99.90
2391;DHT22;22957;50.824;4.360;2023-04-19T03:00:06;10.10;99.90
2391;DHT22;22957;50.824;4.360;2023-04-19T03:02:33;10.30;99.90
2391;DHT22;22957;50.824;4.360;2023-04-19T03:04:58;10.20;99.90
2391;DHT22;22957;50.824;4.360;2023-04-19T03:07:24;10.40;99.90
2391;DHT22;22957;50.824;4.360;2023-04-19T03:09:50;10.60;99.90
2391;DHT22;22957;50.824;4.360;2023-04-19T03:12:15;10.70;99.90
2391;DHT22;22957;50.824;4.360;2023-04-19T03:14:41;10.70;99.90
2391;DHT22;22957;50.824;4.360;2023-04-19T03:17:06;10.50;99.90
2391;DHT22;22957;50.824;4.360;2023-04-19T03:19:32;10.70;99.90
2391;DHT22;22957;50.824;4.360;2023-04-19T03:21:58;10.70;99.90
2391;DHT22;22957;50.824;4.360;2023-04-19T03:24:27;10.40;99.90
2391;DHT22;22957;50.824;4.360;2023-04-19T03:26:56;10.60;99.90
2391;DHT22;22957;50.824;4.360;2023-04-19T03:29:22;10.60;99.90
2391;DHT22;22957;50.824;4.360;2023-04-19T03:31:47;10.80;99.90
2391;DHT22;22957;50.824;4.360;2023-04-19T03:34:13;10.80;99.90
2391;DHT22;22957;50.824;4.360;2023-04-19T03:36:39;11.00;99.90
2391;DHT22;22957;50.824;4.360;2023-04-19T03:39:05;11.50;99.90
2391;DHT22;22957;50.824;4.360;2023-04-19T03:41:31;10.90;99.90
2391;DHT22;22957;50.824;4.360;2023-04-19T03:43:57;10.80;99.90
2391;DHT22;22957;50.824;4.360;2023-04-19T03:46:23;10.70;99.90
2391;DHT22;22957;50.824;4.360;2023-04-19T03:48:49;10.80;99.90
2391;DHT22;22957;50.824;4.360;2023-04-19T03:51:15;11.00;99.90
2391;DHT22;22957;50.824;4.360;2023-04-19T03:53:41;10.60;99.90
2391;DHT22;22957;50.824;4.360;2023-04-19T03:56:07;10.60;99.90
2391;DHT22;22957;50.824;4.360;2023-04-19T03:58:32;10.10;99.90
2391;DHT22;22957;50.824;4.360;2023-04-19T04:00:58;10.80;99.90
2391;DHT22;22957;50.824;4.360;2023-04-19T04:03:24;10.70;99.90
2391;DHT22;22957;50.824;4.360;2023-04-19T04:05:50;10.20;99.90
2391;DHT22;22957;50.824;4.360;2023-04-19T04:08:15;10.20;99.90
2391;DHT22;22957;50.824;4.360;2023-04-19T04:10:41;10.60;99.90
2391;DHT22;22957;50.824;4.360;2023-04-19T04:13:07;10.40;99.90
2391;DHT22;22957;50.824;4.360;2023-04-19T04:15:32;10.70;99.90
2391;DHT22;22957;50.824;4.360;2023-04-19T04:17:58;10.20;99.90
2391;DHT22;22957;50.824;4.360;2023-04-19T04:20:23;10.80;99.90
2391;DHT22;22957;50.824;4.360;2023-04-19T04:22:49;11.10;99.90
2391;DHT22;22957;50.824;4.360;2023-04-19T04:25:15;10.80;99.90
2391;DHT22;22957;50.824;4.360;2023-04-19T04:27:43;10.70;99.90
2391;DHT22;22957;50.824;4.360;2023-04-19T04:30:09;10.80;99.90
2391;DHT22;22957;50.824;4.360;2023-04-19T04:32:36;10.70;99.90
2391;DHT22;22957;50.824;4.360;2023-04-19T04:35:05;10.80;99.90
2391;DHT22;22957;50.824;4.360;2023-04-19T04:37:32;10.40;99.90
2391;DHT22;22957;50.824;4.360;2023-04-19T04:40:01;10.40;99.90
2391;DHT22;22957;50.824;4.360;2023-04-19T04:42:29;10.10;99.90
2391;DHT22;22957;50.824;4.360;2023-04-19T04:44:56;10.60;99.90
2391;DHT22;22957;50.824;4.360;2023-04-19T04:47:22;10.90;99.90
2391;DHT22;22957;50.824;4.360;2023-04-19T04:49:48;10.60;99.90
2391;DHT22;22957;50.824;4.360;2023-04-19T04:52:13;10.80;99.90
2391;DHT22;22957;50.824;4.360;2023-04-19T04:54:39;10.70;99.90
2391;DHT22;22957;50.824;4.360;2023-04-19T04:57:05;10.70;99.90
2391;DHT22;22957;50.824;4.360;2023-04-19T04:59:31;11.20;99.90
2391;DHT22;22957;50.824;4.360;2023-04-19T05:01:56;11.00;99.90
2391;DHT22;22957;50.824;4.360;2023-04-19T05:04:22;10.00;99.90
2391;DHT22;22957;50.824;4.360;2023-04-19T05:06:47;10.40;99.90
2391;DHT22;22957;50.824;4.360;2023-04-19T05:09:13;9.80;99.90
2391;DHT22;22957;50.824;4.360;2023-04-19T05:11:38;10.40;99.90
2391;DHT22;22957;50.824;4.360;2023-04-19T05:14:04;10.40;99.90
2391;DHT22;22957;50.824;4.360;2023-04-19T05:16:31;10.50;99.90
2391;DHT22;22957;50.824;4.360;2023-04-19T05:18:57;10.60;99.90
2391;DHT22;22957;50.824;4.360;2023-04-19T05:21:22;10.80;99.90
2391;DHT22;22957;50.824;4.360;2023-04-19T05:23:48;11.20;99.90
2391;DHT22;22957;50.824;4.360;2023-04-19T05:26:14;10.70;99.90
2391;DHT22;22957;50.824;4.360;2023-04-19T05:28:40;10.80;99.90
2391;DHT22;22957;50.824;4.360;2023-04-19T05:31:09;11.00;99.90
2391;DHT22;22957;50.824;4.360;2023-04-19T05:33:35;12.00;99.90
2391;DHT22;22957;50.824;4.360;2023-04-19T05:36:01;10.70;99.90
2391;DHT22;22957;50.824;4.360;2023-04-19T05:38:26;10.90;99.90
2391;DHT22;22957;50.824;4.360;2023-04-19T05:40:52;11.60;99.90
2391;DHT22;22957;50.824;4.360;2023-04-19T05:43:17;11.80;99.90
2391;DHT22;22957;50.824;4.360;2023-04-19T05:45:43;11.40;99.90
2391;DHT22;22957;50.824;4.360;2023-04-19T05:48:08;10.70;99.90
2391;DHT22;22957;50.824;4.360;2023-04-19T05:50:34;11.30;99.90
2391;DHT22;22957;50.824;4.360;2023-04-19T05:53:01;12.00;99.90
2391;DHT22;22957;50.824;4.360;2023-04-19T05:55:27;12.50;99.90
2391;DHT22;22957;50.824;4.360;2023-04-19T05:57:52;11.70;99.90
2391;DHT22;22957;50.824;4.360;2023-04-19T06:00:18;11.10;99.90
2391;DHT22;22957;50.824;4.360;2023-04-19T06:02:44;11.40;99.90
2391;DHT22;22957;50.824;4.360;2023-04-19T06:05:09;11.10;99.90
2391;DHT22;22957;50.824;4.360;2023-04-19T06:07:35;10.80;99.90
2391;DHT22;22957;50.824;4.360;2023-04-19T06:10:01;11.80;99.90
2391;DHT22;22957;50.824;4.360;2023-04-19T06:12:26;11.40;99.90
2391;DHT22;22957;50.824;4.360;2023-04-19T06:14:52;13.10;99.90
2391;DHT22;22957;50.824;4.360;2023-04-19T06:17:17;11.80;99.90
2391;DHT22;22957;50.824;4.360;2023-04-19T06:19:49;11.20;99.90
2391;DHT22;22957;50.824;4.360;2023-04-19T06:22:14;10.80;99.90
2391;DHT22;22957;50.824;4.360;2023-04-19T06:24:40;11.20;99.90
2391;DHT22;22957;50.824;4.360;2023-04-19T06:27:06;11.40;99.90
2391;DHT22;22957;50.824;4.360;2023-04-19T06:29:31;11.60;99.90
2391;DHT22;22957;50.824;4.360;2023-04-19T06:31:57;10.80;99.90
2391;DHT22;22957;50.824;4.360;2023-04-19T06:34:22;10.80;99.90
2391;DHT22;22957;50.824;4.360;2023-04-19T06:36:48;10.80;99.90
2391;DHT22;22957;50.824;4.360;2023-04-19T06:39:14;11.10;99.90
2391;DHT22;22957;50.824;4.360;2023-04-19T06:41:39;11.20;99.90
2391;DHT22;22957;50.824;4.360;2023-04-19T06:44:05;11.80;99.90
2391;DHT22;22957;50.824;4.360;2023-04-19T06:46:31;11.40;99.90
2391;DHT22;22957;50.824;4.360;2023-04-19T06:48:57;11.40;99.90
2391;DHT22;22957;50.824;4.360;2023-04-19T06:51:22;11.30;99.90
2391;DHT22;22957;50.824;4.360;2023-04-19T06:53:49;11.40;99.90
2391;DHT22;22957;50.824;4.360;2023-04-19T06:56:15;12.10;99.90
2391;DHT22;22957;50.824;4.360;2023-04-19T06:58:41;11.80;99.90
2391;DHT22;22957;50.824;4.360;2023-04-19T07:01:06;12.20;99.90
2391;DHT22;22957;50.824;4.360;2023-04-19T07:03:32;11.80;99.90
2391;DHT22;22957;50.824;4.360;2023-04-19T07:05:58;12.00;99.90
2391;DHT22;22957;50.824;4.360;2023-04-19T07:08:24;12.00;99.90
2391;DHT22;22957;50.824;4.360;2023-04-19T07:10:49;11.80;99.90
2391;DHT22;22957;50.824;4.360;2023-04-19T07:13:15;12.00;99.90
2391;DHT22;22957;50.824;4.360;2023-04-19T07:15:41;12.20;99.90
2391;DHT22;22957;50.824;4.360;2023-04-19T07:18:06;12.50;99.90
2391;DHT22;22957;50.824;4.360;2023-04-19T07:20:34;12.50;99.90
2391;DHT22;22957;50.824;4.360;2023-04-19T07:23:00;12.20;99.90
2391;DHT22;22957;50.824;4.360;2023-04-19T07:25:26;12.50;99.90
2391;DHT22;22957;50.824;4.360;2023-04-19T07:27:52;12.50;99.90
2391;DHT22;22957;50.824;4.360;2023-04-19T07:30:19;13.60;99.90
2391;DHT22;22957;50.824;4.360;2023-04-19T07:32:44;14.70;99.90
2391;DHT22;22957;50.824;4.360;2023-04-19T07:35:10;14.40;99.90
2391;DHT22;22957;50.824;4.360;2023-04-19T07:37:36;14.10;99.90
2391;DHT22;22957;50.824;4.360;2023-04-19T07:40:02;14.90;99.90
2391;DHT22;22957;50.824;4.360;2023-04-19T07:42:29;14.20;99.90
2391;DHT22;22957;50.824;4.360;2023-04-19T07:44:55;13.40;99.90
2391;DHT22;22957;50.824;4.360;2023-04-19T07:47:20;14.50;99.90
2391;DHT22;22957;50.824;4.360;2023-04-19T07:49:50;14.40;99.90
2391;DHT22;22957;50.824;4.360;2023-04-19T07:52:15;13.20;99.90
2391;DHT22;22957;50.824;4.360;2023-04-19T07:54:42;13.50;99.90
2391;DHT22;22957;50.824;4.360;2023-04-19T07:57:08;13.80;99.90
2391;DHT22;22957;50.824;4.360;2023-04-19T07:59:34;15.50;99.90
2391;DHT22;22957;50.824;4.360;2023-04-19T08:01:59;14.50;99.90
2391;DHT22;22957;50.824;4.360;2023-04-19T08:04:25;14.00;99.90
2391;DHT22;22957;50.824;4.360;2023-04-19T08:06:51;13.80;99.90
2391;DHT22;22957;50.824;4.360;2023-04-19T08:09:17;13.20;99.90
2391;DHT22;22957;50.824;4.360;2023-04-19T08:11:43;14.70;99.90
2391;DHT22;22957;50.824;4.360;2023-04-19T08:14:08;13.80;99.90
2391;DHT22;22957;50.824;4.360;2023-04-19T08:16:34;13.80;99.90
2391;DHT22;22957;50.824;4.360;2023-04-19T08:19:00;14.80;99.90
2391;DHT22;22957;50.824;4.360;2023-04-19T08:21:25;13.70;99.90
2391;DHT22;22957;50.824;4.360;2023-04-19T08:23:51;13.60;99.90
2391;DHT22;22957;50.824;4.360;2023-04-19T08:26:16;15.30;99.90
2391;DHT22;22957;50.824;4.360;2023-04-19T08:28:42;15.30;99.90
2391;DHT22;22957;50.824;4.360;2023-04-19T08:31:08;14.70;99.90
2391;DHT22;22957;50.824;4.360;2023-04-19T08:33:34;14.60;99.90
2391;DHT22;22957;50.824;4.360;2023-04-19T08:36:00;14.30;99.90
2391;DHT22;22957;50.824;4.360;2023-04-19T08:38:25;13.90;99.90
2391;DHT22;22957;50.824;4.360;2023-04-19T08:40:52;14.80;99.90
2391;DHT22;22957;50.824;4.360;2023-04-19T08:43:20;13.90;99.90
2391;DHT22;22957;50.824;4.360;2023-04-19T08:45:49;13.60;99.90
2391;DHT22;22957;50.824;4.360;2023-04-19T08:48:16;14.20;99.90
2391;DHT22;22957;50.824;4.360;2023-04-19T08:50:42;13.80;99.90
2391;DHT22;22957;50.824;4.360;2023-04-19T08:53:10;13.50;99.90
2391;DHT22;22957;50.824;4.360;2023-04-19T08:55:37;14.20;99.90
2391;DHT22;22957;50.824;4.360;2023-04-19T08:58:04;14.00;99.90
2391;DHT22;22957;50.824;4.360;2023-04-19T09:00:32;15.10;99.90
2391;DHT22;22957;50.824;4.360;2023-04-19T09:02:58;14.50;99.90
2391;DHT22;22957;50.824;4.360;2023-04-19T09:05:24;15.80;99.90
2391;DHT22;22957;50.824;4.360;2023-04-19T09:07:50;14.30;99.90
2391;DHT22;22957;50.824;4.360;2023-04-19T09:10:18;14.20;99.90
2391;DHT22;22957;50.824;4.360;2023-04-19T09:13:02;15.50;99.90
2391;DHT22;22957;50.824;4.360;2023-04-19T09:15:40;15.60;99.90
2391;DHT22;22957;50.824;4.360;2023-04-19T09:18:09;17.80;99.90
2391;DHT22;22957;50.824;4.360;2023-04-19T09:20:44;17.70;99.90
2391;DHT22;22957;50.824;4.360;2023-04-19T09:23:13;17.10;99.90
2391;DHT22;22957;50.824;4.360;2023-04-19T09:25:40;18.90;99.90
2391;DHT22;22957;50.824;4.360;2023-04-19T09:28:15;15.90;99.90
2391;DHT22;22957;50.824;4.360;2023-04-19T09:30:40;15.20;99.90
2391;DHT22;22957;50.824;4.360;2023-04-19T09:33:06;14.90;99.90
2391;DHT22;22957;50.824;4.360;2023-04-19T09:35:43;15.10;99.90
2391;DHT22;22957;50.824;4.360;2023-04-19T09:38:10;15.90;99.90
2391;DHT22;22957;50.824;4.360;2023-04-19T09:40:37;15.80;99.90
2391;DHT22;22957;50.824;4.360;2023-04-19T09:43:03;14.60;99.90
2391;DHT22;22957;50.824;4.360;2023-04-19T09:45:49;14.90;99.90
2391;DHT22;22957;50.824;4.360;2023-04-19T09:48:15;16.00;99.90
2391;DHT22;22957;50.824;4.360;2023-04-19T09:50:58;14.90;99.90
2391;DHT22;22957;50.824;4.360;2023-04-19T09:53:25;14.20;99.90
2391;DHT22;22957;50.824;4.360;2023-04-19T09:55:51;15.20;99.90
2391;DHT22;22957;50.824;4.360;2023-04-19T09:58:18;15.70;99.90
2391;DHT22;22957;50.824;4.360;2023-04-19T10:00:45;15.30;99.90
2391;DHT22;22957;50.824;4.360;2023-04-19T10:03:13;16.00;99.90
2391;DHT22;22957;50.824;4.360;2023-04-19T10:05:40;16.30;99.90
2391;DHT22;22957;50.824;4.360;2023-04-19T10:08:07;18.00;99.90
2391;DHT22;22957;50.824;4.360;2023-04-19T10:10:34;17.50;99.90
2391;DHT22;22957;50.824;4.360;2023-04-19T10:13:02;18.40;99.90
2391;DHT22;22957;50.824;4.360;2023-04-19T10:15:29;17.40;99.90
2391;DHT22;22957;50.824;4.360;2023-04-19T10:17:55;17.80;99.90
2391;DHT22;22957;50.824;4.360;2023-04-19T10:20:36;16.90;99.90
2391;DHT22;22957;50.824;4.360;2023-04-19T10:23:06;17.50;99.90
2391;DHT22;22957;50.824;4.360;2023-04-19T10:25:34;16.50;99.90
2391;DHT22;22957;50.824;4.360;2023-04-19T10:28:00;16.20;99.90
2391;DHT22;22957;50.824;4.360;2023-04-19T10:30:26;17.50;99.90
2391;DHT22;22957;50.824;4.360;2023-04-19T10:32:54;18.20;99.90
2391;DHT22;22957;50.824;4.360;2023-04-19T10:35:23;18.40;99.90
2391;DHT22;22957;50.824;4.360;2023-04-19T10:43:17;19.40;99.90
2391;DHT22;22957;50.824;4.360;2023-04-19T10:45:43;19.50;99.90
2391;DHT22;22957;50.824;4.360;2023-04-19T10:54:00;16.60;99.90
2391;DHT22;22957;50.824;4.360;2023-04-19T11:01:44;18.30;99.90
2391;DHT22;22957;50.824;4.360;2023-04-19T11:04:14;18.10;99.90
2391;DHT22;22957;50.824;4.360;2023-04-19T11:12:06;16.30;99.90
2391;DHT22;22957;50.824;4.360;2023-04-19T11:14:38;17.20;99.90
2391;DHT22;22957;50.824;4.360;2023-04-19T11:17:15;18.20;99.90
2391;DHT22;22957;50.824;4.360;2023-04-19T11:20:07;16.40;99.90
2391;DHT22;22957;50.824;4.360;2023-04-19T11:22:41;16.50;99.90
2391;DHT22;22957;50.824;4.360;2023-04-19T11:25:17;16.10;99.90
2391;DHT22;22957;50.824;4.360;2023-04-19T11:27:46;16.10;99.90
2391;DHT22;22957;50.824;4.360;2023-04-19T11:30:16;16.40;99.90
2391;DHT22;22957;50.824;4.360;2023-04-19T11:32:45;15.80;99.90
2391;DHT22;22957;50.824;4.360;2023-04-19T11:35:11;17.20;99.90
2391;DHT22;22957;50.824;4.360;2023-04-19T11:37:37;17.30;99.90
2391;DHT22;22957;50.824;4.360;2023-04-19T11:40:04;17.40;99.90
2391;DHT22;22957;50.824;4.360;2023-04-19T11:42:30;16.00;99.90
2391;DHT22;22957;50.824;4.360;2023-04-19T11:44:56;17.20;99.90
2391;DHT22;22957;50.824;4.360;2023-04-19T11:47:26;16.40;99.90
2391;DHT22;22957;50.824;4.360;2023-04-19T11:49:54;15.90;99.90
2391;DHT22;22957;50.824;4.360;2023-04-19T11:52:22;16.60;99.90
2391;DHT22;22957;50.824;4.360;2023-04-19T11:54:52;16.80;99.90
2391;DHT22;22957;50.824;4.360;2023-04-19T11:57:29;17.90;99.90
2391;DHT22;22957;50.824;4.360;2023-04-19T12:00:06;17.80;99.90
2391;DHT22;22957;50.824;4.360;2023-04-19T12:02:37;18.10;99.90
2391;DHT22;22957;50.824;4.360;2023-04-19T12:05:12;18.70;99.90
2391;DHT22;22957;50.824;4.360;2023-04-19T12:08:05;18.40;99.90
2391;DHT22;22957;50.824;4.360;2023-04-19T12:10:33;16.50;99.90
2391;DHT22;22957;50.824;4.360;2023-04-19T12:12:59;17.30;99.90
2391;DHT22;22957;50.824;4.360;2023-04-19T12:15:45;16.50;99.90
2391;DHT22;22957;50.824;4.360;2023-04-19T12:18:11;17.40;99.90
2391;DHT22;22957;50.824;4.360;2023-04-19T12:20:38;16.80;99.90
2391;DHT22;22957;50.824;4.360;2023-04-19T12:23:07;18.60;99.90
2391;DHT22;22957;50.824;4.360;2023-04-19T12:25:35;17.50;99.90
2391;DHT22;22957;50.824;4.360;2023-04-19T12:28:02;16.30;99.90
2391;DHT22;22957;50.824;4.360;2023-04-19T12:30:28;16.60;99.90
2391;DHT22;22957;50.824;4.360;2023-04-19T12:32:54;18.30;99.40
2391;DHT22;22957;50.824;4.360;2023-04-19T12:35:21;16.70;99.90
2391;DHT22;22957;50.824;4.360;2023-04-19T12:37:47;16.00;99.90
2391;DHT22;22957;50.824;4.360;2023-04-19T12:40:13;17.10;99.90
2391;DHT22;22957;50.824;4.360;2023-04-19T12:42:39;16.40;99.90
2391;DHT22;22957;50.824;4.360;2023-04-19T12:45:05;16.90;99.30
2391;DHT22;22957;50.824;4.360;2023-04-19T12:47:31;17.00;97.20
2391;DHT22;22957;50.824;4.360;2023-04-19T12:49:56;16.10;97.10
2391;DHT22;22957;50.824;4.360;2023-04-19T12:52:22;17.30;96.90
2391;DHT22;22957;50.824;4.360;2023-04-19T12:54:48;17.00;96.40
2391;DHT22;22957;50.824;4.360;2023-04-19T12:57:14;16.50;95.90
2391;DHT22;22957;50.824;4.360;2023-04-19T12:59:39;16.70;96.40
2391;DHT22;22957;50.824;4.360;2023-04-19T13:02:05;17.40;95.80
2391;DHT22;22957;50.824;4.360;2023-04-19T13:04:31;17.60;96.70
2391;DHT22;22957;50.824;4.360;2023-04-19T13:06:56;18.20;95.50
2391;DHT22;22957;50.824;4.360;2023-04-19T13:09:22;17.90;94.80
2391;DHT22;22957;50.824;4.360;2023-04-19T13:11:48;18.20;94.00
2391;DHT22;22957;50.824;4.360;2023-04-19T13:14:13;17.10;93.90
2391;DHT22;22957;50.824;4.360;2023-04-19T13:16:39;17.10;93.60
2391;DHT22;22957;50.824;4.360;2023-04-19T13:19:04;16.80;93.40
2391;DHT22;22957;50.824;4.360;2023-04-19T13:21:30;17.50;93.40
2391;DHT22;22957;50.824;4.360;2023-04-19T13:23:59;16.40;94.20
2391;DHT22;22957;50.824;4.360;2023-04-19T13:26:24;17.20;94.20
2391;DHT22;22957;50.824;4.360;2023-04-19T13:28:50;17.90;92.50
2391;DHT22;22957;50.824;4.360;2023-04-19T13:31:15;18.10;91.60
2391;DHT22;22957;50.824;4.360;2023-04-19T13:33:41;17.50;91.90
2391;DHT22;22957;50.824;4.360;2023-04-19T13:36:07;17.40;90.90
2391;DHT22;22957;50.824;4.360;2023-04-19T13:38:32;18.10;88.60
2391;DHT22;22957;50.824;4.360;2023-04-19T13:40:58;16.70;86.30
2391;DHT22;22957;50.824;4.360;2023-04-19T13:43:24;16.90;89.20
2391;DHT22;22957;50.824;4.360;2023-04-19T13:45:50;17.40;86.70
2391;DHT22;22957;50.824;4.360;2023-04-19T13:48:15;17.40;86.00
2391;DHT22;22957;50.824;4.360;2023-04-19T13:50:41;17.60;86.30
2391;DHT22;22957;50.824;4.360;2023-04-19T13:53:06;17.90;84.70
2391;DHT22;22957;50.824;4.360;2023-04-19T13:55:32;17.60;85.60
2391;DHT22;22957;50.824;4.360;2023-04-19T13:57:58;17.30;83.90
2391;DHT22;22957;50.824;4.360;2023-04-19T14:00:24;16.40;81.00
2391;DHT22;22957;50.824;4.360;2023-04-19T14:02:49;16.30;84.00
2391;DHT22;22957;50.824;4.360;2023-04-19T14:05:15;17.40;82.50
2391;DHT22;22957;50.824;4.360;2023-04-19T14:07:41;17.50;79.00
2391;DHT22;22957;50.824;4.360;2023-04-19T14:10:08;18.00;74.60
2391;DHT22;22957;50.824;4.360;2023-04-19T14:12:34;18.50;72.80
2391;DHT22;22957;50.824;4.360;2023-04-19T14:14:59;17.30;72.90
2391;DHT22;22957;50.824;4.360;2023-04-19T14:17:25;17.00;72.00
2391;DHT22;22957;50.824;4.360;2023-04-19T14:19:51;16.30;70.40
2391;DHT22;22957;50.824;4.360;2023-04-19T14:22:16;17.50;74.10
2391;DHT22;22957;50.824;4.360;2023-04-19T14:24:42;17.00;71.60
2391;DHT22;22957;50.824;4.360;2023-04-19T14:27:08;16.00;65.30
2391;DHT22;22957;50.824;4.360;2023-04-19T14:29:33;16.50;66.90
2391;DHT22;22957;50.824;4.360;2023-04-19T14:31:59;16.10;67.20
2391;DHT22;22957;50.824;4.360;2023-04-19T14:34:25;16.50;71.00
2391;DHT22;22957;50.824;4.360;2023-04-19T14:36:51;15.70;63.40
2391;DHT22;22957;50.824;4.360;2023-04-19T14:39:17;16.20;69.60
2391;DHT22;22957;50.824;4.360;2023-04-19T14:41:44;17.20;66.60
2391;DHT22;22957;50.824;4.360;2023-04-19T14:44:09;17.10;64.70
2391;DHT22;22957;50.824;4.360;2023-04-19T14:46:35;17.00;65.20
2391;DHT22;22957;50.824;4.360;2023-04-19T14:49:00;17.20;67.60
2391;DHT22;22957;50.824;4.360;2023-04-19T14:51:28;16.70;67.50
2391;DHT22;22957;50.824;4.360;2023-04-19T14:53:54;16.60;66.10
2391;DHT22;22957;50.824;4.360;2023-04-19T14:56:19;16.70;65.20
2391;DHT22;22957;50.824;4.360;2023-04-19T14:58:45;15.70;64.40
2391;DHT22;22957;50.824;4.360;2023-04-19T15:01:14;15.70;67.00
2391;DHT22;22957;50.824;4.360;2023-04-19T15:03:40;15.70;68.10
2391;DHT22;22957;50.824;4.360;2023-04-19T15:06:06;15.90;69.20
2391;DHT22;22957;50.824;4.360;2023-04-19T15:08:32;15.40;67.90
2391;DHT22;22957;50.824;4.360;2023-04-19T15:10:57;15.70;68.00
2391;DHT22;22957;50.824;4.360;2023-04-19T15:13:23;16.70;68.80
2391;DHT22;22957;50.824;4.360;2023-04-19T15:15:49;16.90;71.10
2391;DHT22;22957;50.824;4.360;2023-04-19T15:18:14;17.20;66.90
2391;DHT22;22957;50.824;4.360;2023-04-19T15:20:41;16.90;67.50
2391;DHT22;22957;50.824;4.360;2023-04-19T15:23:07;16.50;67.60
2391;DHT22;22957;50.824;4.360;2023-04-19T15:25:33;15.70;67.80
2391;DHT22;22957;50.824;4.360;2023-04-19T15:27:59;16.50;67.10
2391;DHT22;22957;50.824;4.360;2023-04-19T15:30:25;16.70;67.80
2391;DHT22;22957;50.824;4.360;2023-04-19T15:32:50;16.10;65.70
2391;DHT22;22957;50.824;4.360;2023-04-19T15:35:16;15.30;64.40
2391;DHT22;22957;50.824;4.360;2023-04-19T15:37:41;15.90;66.70
2391;DHT22;22957;50.824;4.360;2023-04-19T15:40:08;16.20;65.50
2391;DHT22;22957;50.824;4.360;2023-04-19T15:42:36;15.90;62.00
2391;DHT22;22957;50.824;4.360;2023-04-19T15:45:02;16.50;62.80
2391;DHT22;22957;50.824;4.360;2023-04-19T15:47:27;16.30;63.10
2391;DHT22;22957;50.824;4.360;2023-04-19T15:49:53;15.80;62.00
2391;DHT22;22957;50.824;4.360;2023-04-19T15:52:19;15.40;62.30
2391;DHT22;22957;50.824;4.360;2023-04-19T15:54:44;16.90;61.80
2391;DHT22;22957;50.824;4.360;2023-04-19T15:57:10;16.90;59.30
2391;DHT22;22957;50.824;4.360;2023-04-19T15:59:36;16.90;60.70
2391;DHT22;22957;50.824;4.360;2023-04-19T16:02:01;17.00;60.00
2391;DHT22;22957;50.824;4.360;2023-04-19T16:04:27;15.90;58.10